Time;durP1;ratioP1;P1;durP2;ratioP2;P2;SDS_P1;SDS_P2;PMS_P1;PMS_P2;Temp;Humidity;BMP_temperature;BMP_pressure;BME280_temperature;BME280_humidity;BME280_pressure;Samples;Min_cycle;Max_cycle;Signal;HPM_P1;HPM_P2
2023/06/28 00:00:00;;;;;;;;;;;;;;;;;;4985519;28;19934;-84
2023/06/28 00:02:27;;;;;;;;;;;;;;;;;;4979654;28;19929;-83
2023/06/28 00:04:55;;;;;;;;;;;;;;;;;;4978912;28;20318;-83
2023/06/28 00:07:23;;;;;;;;;;;;;;;;;;4971990;28;19930;-84
2023/06/28 00:09:51;;;;;;;;;;;;;;;;;;4981994;28;20291;-83
2023/06/28 00:12:19;;;;;;;;;;;;;;;;;;4966826;28;19941;-84
2023/06/28 00:14:47;;;;;;;;;;;;;;;;;;4982839;28;19927;-83
2023/06/28 00:17:19;;;;;;;;;;;;;;;;;;4967053;28;20710;-84
2023/06/28 00:19:48;;;;;;;;;;;;;;;;;;4982753;28;19938;-84
2023/06/28 00:22:16;;;;;;;;;;;;;;;;;;4968220;28;20349;-83
2023/06/28 00:24:43;;;;;;;;;;;;;;;;;;4962984;28;19926;-83
2023/06/28 00:27:16;;;;;;;;;;;;;;;;;;4968393;28;19945;-84
2023/06/28 00:29:48;;;;;;;;;;;;;;;;;;4966129;28;19934;-84
2023/06/28 00:32:21;;;;;;;;;;;;;;;;;;4964161;28;19926;-84
2023/06/28 00:34:53;;;;;;;;;;;;;;;;;;4964551;28;19945;-83
2023/06/28 00:37:26;;;;;;;;;;;;;;;;;;4963069;28;19926;-83
2023/06/28 00:39:54;;;;;;;;;;;;;;;;;;4969911;28;19956;-85
2023/06/28 00:42:22;;;;;;;;;;;;;;;;;;4969891;28;19937;-82
2023/06/28 00:44:49;;;;;;;;;;;;;;;;;;4964013;28;19945;-83
2023/06/28 00:47:17;;;;;;;;;;;;;;;;;;4968529;28;19930;-83
2023/06/28 00:49:44;;;;;;;;;;;;;;;;;;4968530;28;19937;-82
2023/06/28 00:52:12;;;;;;;;;;;;;;;;;;4967030;28;19930;-83
2023/06/28 00:54:45;;;;;;;;;;;;;;;;;;4979553;28;20379;-83
2023/06/28 00:57:12;;;;;;;;;;;;;;;;;;4967634;28;19926;-83
2023/06/28 00:59:45;;;;;;;;;;;;;;;;;;4984129;28;20410;-84
2023/06/28 01:02:12;;;;;;;;;;;;;;;;;;4975344;28;19930;-84
2023/06/28 01:04:40;;;;;;;;;;;;;;;;;;4979803;28;19945;-83
2023/06/28 01:07:08;;;;;;;;;;;;;;;;;;4969304;28;20294;-84
2023/06/28 01:09:35;;;;;;;;;;;;;;;;;;4981667;28;19933;-82
2023/06/28 01:12:05;;;;;;;;;;;;;;;;;;4975910;28;20435;-82
2023/06/28 01:14:32;;;;;;;;;;;;;;;;;;4981726;28;19937;-82
2023/06/28 01:17:00;;;;;;;;;;;;;;;;;;4962208;28;20113;-81
2023/06/28 01:19:32;;;;;;;;;;;;;;;;;;4958503;28;20375;-83
2023/06/28 01:22:00;;;;;;;;;;;;;;;;;;4977714;28;19937;-83
2023/06/28 01:24:27;;;;;;;;;;;;;;;;;;4964758;28;19933;-82
2023/06/28 01:26:58;;;;;;;;;;;;;;;;;;4964974;28;19934;-82
2023/06/28 01:29:25;;;;;;;;;;;;;;;;;;4978760;28;19941;-83
2023/06/28 01:31:53;;;;;;;;;;;;;;;;;;4965574;28;19937;-83
2023/06/28 01:34:24;;;;;;;;;;;;;;;;;;4973366;28;20294;-82
2023/06/28 01:36:52;;;;;;;;;;;;;;;;;;4962671;28;19941;-83
2023/06/28 01:39:25;;;;;;;;;;;;;;;;;;4967450;28;19937;-83
2023/06/28 01:41:53;;;;;;;;;;;;;;;;;;4961300;28;19930;-82
2023/06/28 01:44:20;;;;;;;;;;;;;;;;;;4981575;28;20842;-82
2023/06/28 01:46:49;;;;;;;;;;;;;;;;;;4965238;28;19933;-82
2023/06/28 01:49:17;;;;;;;;;;;;;;;;;;4977112;28;19941;-82
2023/06/28 01:51:44;;;;;;;;;;;;;;;;;;4977277;28;19933;-83
2023/06/28 01:54:12;;;;;;;;;;;;;;;;;;4974591;28;19938;-82
2023/06/28 01:56:39;;;;;;;;;;;;;;;;;;4981981;28;20565;-82
2023/06/28 01:59:07;;;;;;;;;;;;;;;;;;4965242;28;19937;-82
2023/06/28 02:01:40;;;;;;;;;;;;;;;;;;4967632;28;19933;-83
2023/06/28 02:04:07;;;;;;;;;;;;;;;;;;4977760;28;20402;-82
2023/06/28 02:06:35;;;;;;;;;;;;;;;;;;4975895;28;19937;-83
2023/06/28 02:09:04;;;;;;;;;;;;;;;;;;4966541;28;20378;-83
2023/06/28 02:11:36;;;;;;;;;;;;;;;;;;4958059;28;19930;-83
2023/06/28 02:14:04;;;;;;;;;;;;;;;;;;4976782;28;20279;-83
2023/06/28 02:16:32;;;;;;;;;;;;;;;;;;4967490;28;19968;-83
2023/06/28 02:19:05;;;;;;;;;;;;;;;;;;4966951;28;19930;-83
2023/06/28 02:21:32;;;;;;;;;;;;;;;;;;4978923;28;20413;-81
2023/06/28 02:24:00;;;;;;;;;;;;;;;;;;4963460;28;19930;-83
2023/06/28 02:26:29;;;;;;;;;;;;;;;;;;4977323;28;20454;-84
2023/06/28 02:28:57;;;;;;;;;;;;;;;;;;4964957;28;19934;-84
2023/06/28 02:31:25;;;;;;;;;;;;;;;;;;4979809;28;19930;-84
2023/06/28 02:33:57;;;;;;;;;;;;;;;;;;4977539;28;19934;-85
2023/06/28 02:36:25;;;;;;;;;;;;;;;;;;4974739;28;19926;-84
2023/06/28 02:38:53;;;;;;;;;;;;;;;;;;4966587;28;20486;-83
2023/06/28 02:41:20;;;;;;;;;;;;;;;;;;4977726;28;19930;-84
2023/06/28 02:43:48;;;;;;;;;;;;;;;;;;4965965;28;19946;-83
2023/06/28 02:46:15;;;;;;;;;;;;;;;;;;4969208;28;19942;-84
2023/06/28 02:48:43;;;;;;;;;;;;;;;;;;4958088;28;19931;-84
2023/06/28 02:51:10;;;;;;;;;;;;;;;;;;4961346;28;19930;-83
2023/06/28 02:53:38;;;;;;;;;;;;;;;;;;4964514;28;19930;-83
2023/06/28 02:56:06;;;;;;;;;;;;;;;;;;4973660;28;19926;-83
2023/06/28 02:58:53;;;;;;;;;;;;;;;;;;4962182;28;19941;-83
2023/06/28 03:01:21;;;;;;;;;;;;;;;;;;4980012;28;19941;-85
2023/06/28 03:03:48;;;;;;;;;;;;;;;;;;4956956;28;20310;-83
2023/06/28 03:06:16;;;;;;;;;;;;;;;;;;4972286;28;20414;-84
2023/06/28 03:08:44;;;;;;;;;;;;;;;;;;4965747;28;20305;-83
2023/06/28 03:11:11;;;;;;;;;;;;;;;;;;4960752;28;19931;-84
2023/06/28 03:13:39;;;;;;;;;;;;;;;;;;4981384;28;19941;-83
2023/06/28 03:16:11;;;;;;;;;;;;;;;;;;4980759;28;20431;-83
2023/06/28 03:18:39;;;;;;;;;;;;;;;;;;4974362;28;19931;-81
2023/06/28 03:21:12;;;;;;;;;;;;;;;;;;4961276;28;20179;-83
2023/06/28 03:23:39;;;;;;;;;;;;;;;;;;4973575;28;19934;-83
2023/06/28 03:26:07;;;;;;;;;;;;;;;;;;4983256;28;19933;-83
2023/06/28 03:28:34;;;;;;;;;;;;;;;;;;4977492;28;19936;-82
2023/06/28 03:31:07;;;;;;;;;;;;;;;;;;4971717;28;19938;-84
2023/06/28 03:33:34;;;;;;;;;;;;;;;;;;4959091;28;19930;-84
2023/06/28 03:36:02;;;;;;;;;;;;;;;;;;4975308;28;19926;-83
2023/06/28 03:38:29;;;;;;;;;;;;;;;;;;4977298;28;19930;-82
2023/06/28 03:41:03;;;;;;;;;;;;;;;;;;4964142;28;20377;-83
2023/06/28 03:43:30;;;;;;;;;;;;;;;;;;4981841;28;19930;-84
2023/06/28 03:45:58;;;;;;;;;;;;;;;;;;4967329;28;19931;-83
2023/06/28 03:48:25;;;;;;;;;;;;;;;;;;4979380;28;19934;-84
2023/06/28 03:50:53;;;;;;;;;;;;;;;;;;4980702;28;19942;-82
2023/06/28 03:53:23;;;;;;;;;;;;;;;;;;4964263;28;19941;-84
2023/06/28 03:55:52;;;;;;;;;;;;;;;;;;4980953;28;19937;-82
2023/06/28 03:58:24;;;;;;;;;;;;;;;;;;4964165;28;19938;-83
2023/06/28 04:00:52;;;;;;;;;;;;;;;;;;4967019;28;19929;-83
2023/06/28 04:03:20;;;;;;;;;;;;;;;;;;4976559;28;19930;-84
2023/06/28 04:05:48;;;;;;;;;;;;;;;;;;4964020;28;19930;-84
2023/06/28 04:08:16;;;;;;;;;;;;;;;;;;4979903;28;20677;-82
2023/06/28 04:10:43;;;;;;;;;;;;;;;;;;4966747;28;19927;-83
2023/06/28 04:13:11;;;;;;;;;;;;;;;;;;4962613;28;19926;-83
2023/06/28 04:15:39;;;;;;;;;;;;;;;;;;4964140;28;19950;-84
2023/06/28 04:18:06;;;;;;;;;;;;;;;;;;4975434;28;20410;-84
2023/06/28 04:20:39;;;;;;;;;;;;;;;;;;4971146;28;19933;-85
2023/06/28 04:23:07;;;;;;;;;;;;;;;;;;4974782;28;19933;-84
2023/06/28 04:25:34;;;;;;;;;;;;;;;;;;4966722;28;19930;-83
2023/06/28 04:28:02;;;;;;;;;;;;;;;;;;4982727;28;20018;-84
2023/06/28 04:30:31;;;;;;;;;;;;;;;;;;4974240;28;19930;-83
2023/06/28 04:33:04;;;;;;;;;;;;;;;;;;4964288;28;20392;-84
2023/06/28 04:35:34;;;;;;;;;;;;;;;;;;4967624;28;19933;-82
2023/06/28 04:38:03;;;;;;;;;;;;;;;;;;4980987;28;19942;-83
2023/06/28 04:40:31;;;;;;;;;;;;;;;;;;4975350;28;20696;-83
2023/06/28 04:42:58;;;;;;;;;;;;;;;;;;4961645;28;19937;-83
2023/06/28 04:45:36;;;;;;;;;;;;;;;;;;4975531;28;19935;-84
2023/06/28 04:48:05;;;;;;;;;;;;;;;;;;4978444;28;20201;-83
2023/06/28 04:50:33;;;;;;;;;;;;;;;;;;4964127;28;19926;-84
2023/06/28 04:53:00;;;;;;;;;;;;;;;;;;4974496;28;20283;-83
2023/06/28 04:55:32;;;;;;;;;;;;;;;;;;4974640;28;19930;-84
2023/06/28 04:58:01;;;;;;;;;;;;;;;;;;4976014;28;20334;-84
2023/06/28 05:00:34;;;;;;;;;;;;;;;;;;4977386;28;19934;-83
2023/06/28 05:03:01;;;;;;;;;;;;;;;;;;4972429;28;19981;-83
2023/06/28 05:05:34;;;;;;;;;;;;;;;;;;4959815;28;19934;-83
2023/06/28 05:08:03;;;;;;;;;;;;;;;;;;4964579;28;20390;-83
2023/06/28 05:10:30;;;;;;;;;;;;;;;;;;4964361;28;20290;-82
2023/06/28 05:12:58;;;;;;;;;;;;;;;;;;4966839;28;20275;-85
2023/06/28 05:15:30;;;;;;;;;;;;;;;;;;4981867;28;19930;-84
2023/06/28 05:17:57;;;;;;;;;;;;;;;;;;4979307;28;20383;-85
2023/06/28 05:20:25;;;;;;;;;;;;;;;;;;4961753;28;19934;-82
2023/06/28 05:22:52;;;;;;;;;;;;;;;;;;4978593;28;20421;-82
2023/06/28 05:25:25;;;;;;;;;;;;;;;;;;4965375;28;19931;-85
2023/06/28 05:27:53;;;;;;;;;;;;;;;;;;4982998;28;19930;-84
2023/06/28 05:30:20;;;;;;;;;;;;;;;;;;4968636;28;20371;-85
2023/06/28 05:32:48;;;;;;;;;;;;;;;;;;4959712;28;19931;-84
2023/06/28 05:35:15;;;;;;;;;;;;;;;;;;4964943;28;19933;-83
2023/06/28 05:37:43;;;;;;;;;;;;;;;;;;4974300;28;19957;-85
2023/06/28 05:40:11;;;;;;;;;;;;;;;;;;4965745;28;19926;-84
2023/06/28 05:42:38;;;;;;;;;;;;;;;;;;4977380;28;19934;-85
2023/06/28 05:45:06;;;;;;;;;;;;;;;;;;4961007;28;19926;-84
2023/06/28 05:47:33;;;;;;;;;;;;;;;;;;4977564;28;19927;-87
2023/06/28 05:50:01;;;;;;;;;;;;;;;;;;4966863;28;19926;-85
2023/06/28 05:52:29;;;;;;;;;;;;;;;;;;4975404;28;19930;-87
2023/06/28 05:54:56;;;;;;;;;;;;;;;;;;4974888;28;20421;-85
2023/06/28 05:57:24;;;;;;;;;;;;;;;;;;4975306;28;19934;-85
2023/06/28 05:59:51;;;;;;;;;;;;;;;;;;4961647;28;19930;-85
2023/06/28 06:02:26;;;;;;;;;;;;;;;;;;4977809;28;19933;-85
2023/06/28 06:04:53;;;;;;;;;;;;;;;;;;4959060;28;19926;-87
2023/06/28 06:07:21;;;;;;;;;;;;;;;;;;4979271;28;19937;-86
2023/06/28 06:09:48;;;;;;;;;;;;;;;;;;4978460;28;20582;-86
2023/06/28 06:12:17;;;;;;;;;;;;;;;;;;4960045;28;19930;-83
2023/06/28 06:14:44;;;;;;;;;;;;;;;;;;4964405;28;19930;-85
2023/06/28 06:17:12;;;;;;;;;;;;;;;;;;4977097;28;19934;-86
2023/06/28 06:19:40;;;;;;;;;;;;;;;;;;4974400;28;19935;-83
2023/06/28 06:22:07;;;;;;;;;;;;;;;;;;4974440;28;19930;-84
2023/06/28 06:24:35;;;;;;;;;;;;;;;;;;4955680;28;20438;-84
2023/06/28 06:27:02;;;;;;;;;;;;;;;;;;4964411;28;19942;-86
2023/06/28 06:29:30;;;;;;;;;;;;;;;;;;4959317;28;19927;-84
2023/06/28 06:31:58;;;;;;;;;;;;;;;;;;4958424;28;19927;-86
2023/06/28 06:34:30;;;;;;;;;;;;;;;;;;4961059;28;19937;-86
2023/06/28 06:36:58;;;;;;;;;;;;;;;;;;4975490;28;19927;-86
2023/06/28 06:39:33;;;;;;;;;;;;;;;;;;4963058;28;19950;-88
2023/06/28 06:42:01;;;;;;;;;;;;;;;;;;4965778;28;19941;-83
2023/06/28 06:44:29;;;;;;;;;;;;;;;;;;4974977;28;19934;-84
2023/06/28 06:46:56;;;;;;;;;;;;;;;;;;4962586;28;19942;-86
2023/06/28 06:49:24;;;;;;;;;;;;;;;;;;4960527;28;19926;-91
2023/06/28 06:51:52;;;;;;;;;;;;;;;;;;4962355;28;19933;-89
2023/06/28 06:54:19;;;;;;;;;;;;;;;;;;4963165;28;19934;-86
2023/06/28 06:56:47;;;;;;;;;;;;;;;;;;4960405;28;20319;-85
2023/06/28 06:59:16;;;;;;;;;;;;;;;;;;4964446;28;19933;-88
2023/06/28 07:01:43;;;;;;;;;;;;;;;;;;4961365;28;19942;-86
2023/06/28 07:04:11;;;;;;;;;;;;;;;;;;4966353;28;20801;-84
2023/06/28 07:06:39;;;;;;;;;;;;;;;;;;4964080;28;19930;-85
2023/06/28 07:09:07;;;;;;;;;;;;;;;;;;4957407;28;19941;-86
2023/06/28 07:11:35;;;;;;;;;;;;;;;;;;4967238;28;19930;-86
2023/06/28 07:14:02;;;;;;;;;;;;;;;;;;4967233;28;20370;-84
2023/06/28 07:16:30;;;;;;;;;;;;;;;;;;4952838;28;19945;-84
2023/06/28 07:18:57;;;;;;;;;;;;;;;;;;4964919;28;19941;-86
2023/06/28 07:21:25;;;;;;;;;;;;;;;;;;4960712;28;19941;-86
2023/06/28 07:23:54;;;;;;;;;;;;;;;;;;4966378;28;19934;-87
2023/06/28 07:26:21;;;;;;;;;;;;;;;;;;4961883;28;21286;-89
2023/06/28 07:28:49;;;;;;;;;;;;;;;;;;4964538;28;19942;-85
2023/06/28 07:31:17;;;;;;;;;;;;;;;;;;4938258;28;20018;-84
2023/06/28 07:33:50;;;;;;;;;;;;;;;;;;4942788;28;19934;-83
2023/06/28 07:36:22;;;;;;;;;;;;;;;;;;4931363;28;19934;-85
2023/06/28 07:38:50;;;;;;;;;;;;;;;;;;4933594;28;20442;-86
2023/06/28 07:41:18;;;;;;;;;;;;;;;;;;4930635;28;19945;-86
2023/06/28 07:43:45;;;;;;;;;;;;;;;;;;4950426;28;19934;-86
2023/06/28 07:46:13;;;;;;;;;;;;;;;;;;4947779;28;19941;-84
2023/06/28 07:48:40;;;;;;;;;;;;;;;;;;4940510;28;19941;-85
2023/06/28 07:51:08;;;;;;;;;;;;;;;;;;4957311;28;20414;-84
2023/06/28 07:53:37;;;;;;;;;;;;;;;;;;4954381;28;19934;-84
2023/06/28 07:56:05;;;;;;;;;;;;;;;;;;4959367;28;19968;-84
2023/06/28 07:58:32;;;;;;;;;;;;;;;;;;4959819;28;19934;-83
2023/06/28 08:01:01;;;;;;;;;;;;;;;;;;4940162;28;20463;-87
2023/06/28 08:03:28;;;;;;;;;;;;;;;;;;4947020;28;19934;-87
2023/06/28 08:06:06;;;;;;;;;;;;;;;;;;4964131;28;19988;-86
2023/06/28 08:08:34;;;;;;;;;;;;;;;;;;4963177;28;19934;-87
2023/06/28 08:11:02;;;;;;;;;;;;;;;;;;4956949;28;19941;-87
2023/06/28 08:13:30;;;;;;;;;;;;;;;;;;4946823;28;19933;-87
2023/06/28 08:16:03;;;;;;;;;;;;;;;;;;4988945;28;19934;-86
2023/06/28 08:18:30;;;;;;;;;;;;;;;;;;4978114;28;19933;-84
2023/06/28 08:20:58;;;;;;;;;;;;;;;;;;4959794;28;19934;-84
2023/06/28 08:23:28;;;;;;;;;;;;;;;;;;4942648;28;19941;-86
2023/06/28 08:25:55;;;;;;;;;;;;;;;;;;4943107;28;19945;-86
2023/06/28 08:28:23;;;;;;;;;;;;;;;;;;4961296;28;19933;-84
2023/06/28 08:30:50;;;;;;;;;;;;;;;;;;4946499;28;19934;-86
2023/06/28 08:33:18;;;;;;;;;;;;;;;;;;4933885;28;19988;-86
2023/06/28 08:35:45;;;;;;;;;;;;;;;;;;4945273;28;20387;-85
2023/06/28 08:38:13;;;;;;;;;;;;;;;;;;4934602;28;20285;-86
2023/06/28 08:40:41;;;;;;;;;;;;;;;;;;4949489;28;20417;-86
2023/06/28 08:43:14;;;;;;;;;;;;;;;;;;4931365;28;19949;-84
2023/06/28 08:45:41;;;;;;;;;;;;;;;;;;4946191;28;19934;-83
2023/06/28 08:48:14;;;;;;;;;;;;;;;;;;4926833;28;19941;-85
2023/06/28 08:50:43;;;;;;;;;;;;;;;;;;4928198;28;19934;-84
2023/06/28 08:53:10;;;;;;;;;;;;;;;;;;4927537;28;19934;-84
2023/06/28 08:55:38;;;;;;;;;;;;;;;;;;4942057;28;19934;-85
2023/06/28 08:58:06;;;;;;;;;;;;;;;;;;4936874;28;19934;-84
2023/06/28 09:00:33;;;;;;;;;;;;;;;;;;4946090;28;19941;-84
2023/06/28 09:03:01;;;;;;;;;;;;;;;;;;4955195;28;19941;-86
2023/06/28 09:05:29;;;;;;;;;;;;;;;;;;4949387;28;19930;-85
2023/06/28 09:07:56;;;;;;;;;;;;;;;;;;4965951;28;19935;-85
2023/06/28 09:10:24;;;;;;;;;;;;;;;;;;4965920;28;20201;-88
2023/06/28 09:12:54;;;;;;;;;;;;;;;;;;4942707;28;20010;-85
2023/06/28 09:15:25;;;;;;;;;;;;;;;;;;4943291;28;19981;-89
2023/06/28 09:17:53;;;;;;;;;;;;;;;;;;4952080;28;19934;-87
2023/06/28 09:20:21;;;;;;;;;;;;;;;;;;4942493;28;20634;-85
2023/06/28 09:22:49;;;;;;;;;;;;;;;;;;4950777;28;19945;-85
2023/06/28 09:25:17;;;;;;;;;;;;;;;;;;4970115;28;19934;-90
2023/06/28 09:27:45;;;;;;;;;;;;;;;;;;4942342;28;19934;-86
2023/06/28 09:30:36;;;;;;;;;;;;;;;;;;4957538;28;19976;-87
2023/06/28 09:33:04;;;;;;;;;;;;;;;;;;4964002;28;19941;-84
2023/06/28 09:35:31;;;;;;;;;;;;;;;;;;4949084;28;19934;-87
2023/06/28 09:38:04;;;;;;;;;;;;;;;;;;4962525;28;21215;-87
2023/06/28 09:40:37;;;;;;;;;;;;;;;;;;4964770;28;19934;-87
2023/06/28 09:43:05;;;;;;;;;;;;;;;;;;4949325;28;19941;-88
2023/06/28 09:45:32;;;;;;;;;;;;;;;;;;4957896;28;19934;-87
2023/06/28 09:48:00;;;;;;;;;;;;;;;;;;4966500;28;19941;-88
2023/06/28 09:50:29;;;;;;;;;;;;;;;;;;4969237;28;19934;-89
2023/06/28 09:52:57;;;;;;;;;;;;;;;;;;4946026;28;19934;-86
2023/06/28 09:55:24;;;;;;;;;;;;;;;;;;4953101;28;19934;-82
2023/06/28 09:57:52;;;;;;;;;;;;;;;;;;4960291;28;19930;-85
2023/06/28 10:00:19;;;;;;;;;;;;;;;;;;4964681;28;19934;-85
2023/06/28 10:02:47;;;;;;;;;;;;;;;;;;4965478;28;19934;-88
2023/06/28 10:05:15;;;;;;;;;;;;;;;;;;4946644;28;19941;-84
2023/06/28 10:07:42;;;;;;;;;;;;;;;;;;4944384;28;20397;-86
2023/06/28 10:10:12;;;;;;;;;;;;;;;;;;4951631;28;21793;-86
2023/06/28 10:12:43;;;;;;;;;;;;;;;;;;4950062;28;19930;-89
2023/06/28 10:15:11;;;;;;;;;;;;;;;;;;4948090;28;19934;-88
2023/06/28 10:17:40;;;;;;;;;;;;;;;;;;4961423;28;19942;-86
2023/06/28 10:20:08;;;;;;;;;;;;;;;;;;4963021;28;19952;-87
2023/06/28 10:25:43;;;;;;;;;;;;;;;;;;4946097;28;19933;-88
2023/06/28 10:28:11;;;;;;;;;;;;;;;;;;4951192;28;19934;-88
2023/06/28 10:30:38;;;;;;;;;;;;;;;;;;4949902;28;20421;-85
2023/06/28 10:33:06;;;;;;;;;;;;;;;;;;4953568;28;20393;-89
2023/06/28 10:35:34;;;;;;;;;;;;;;;;;;4944649;28;20395;-87
2023/06/28 10:38:01;;;;;;;;;;;;;;;;;;4954680;28;19934;-87
2023/06/28 10:40:29;;;;;;;;;;;;;;;;;;4945399;28;19941;-84
2023/06/28 10:42:58;;;;;;;;;;;;;;;;;;4940928;28;19942;-84
2023/06/28 10:45:26;;;;;;;;;;;;;;;;;;4936803;28;20290;-84
2023/06/28 10:47:53;;;;;;;;;;;;;;;;;;4954293;28;19934;-86
2023/06/28 10:50:26;;;;;;;;;;;;;;;;;;4942117;28;19941;-87
2023/06/28 10:52:54;;;;;;;;;;;;;;;;;;4960340;28;19934;-88
2023/06/28 10:55:21;;;;;;;;;;;;;;;;;;4964882;28;19941;-87
2023/06/28 10:57:49;;;;;;;;;;;;;;;;;;4959045;28;19934;-88
2023/06/28 11:00:16;;;;;;;;;;;;;;;;;;4942825;28;20259;-85
2023/06/28 11:02:44;;;;;;;;;;;;;;;;;;4962327;28;21951;-88
2023/06/28 11:05:12;;;;;;;;;;;;;;;;;;4948843;28;20407;-86
2023/06/28 11:07:41;;;;;;;;;;;;;;;;;;4965754;28;19941;-86
2023/06/28 11:10:09;;;;;;;;;;;;;;;;;;4948178;28;19945;-88
2023/06/28 11:12:36;;;;;;;;;;;;;;;;;;4951595;28;21562;-86
2023/06/28 11:15:04;;;;;;;;;;;;;;;;;;4946112;28;19945;-88
2023/06/28 11:17:31;;;;;;;;;;;;;;;;;;4945275;28;20412;-88
2023/06/28 11:19:59;;;;;;;;;;;;;;;;;;4953369;28;19934;-85
2023/06/28 11:22:27;;;;;;;;;;;;;;;;;;4949370;28;19961;-86
2023/06/28 11:24:59;;;;;;;;;;;;;;;;;;4909071;28;19934;-85
2023/06/28 11:27:27;;;;;;;;;;;;;;;;;;4950776;28;20102;-86
2023/06/28 11:29:56;;;;;;;;;;;;;;;;;;4949701;28;20836;-84
2023/06/28 11:32:42;;;;;;;;;;;;;;;;;;4951388;28;19933;-87
2023/06/28 11:35:16;;;;;;;;;;;;;;;;;;4951556;28;19934;-85
2023/06/28 11:37:47;;;;;;;;;;;;;;;;;;4960874;28;20322;-92
2023/06/28 11:40:15;;;;;;;;;;;;;;;;;;4947466;28;19951;-86
2023/06/28 11:42:45;;;;;;;;;;;;;;;;;;4946952;28;19950;-86
2023/06/28 11:45:18;;;;;;;;;;;;;;;;;;4949506;28;19941;-84
2023/06/28 11:47:45;;;;;;;;;;;;;;;;;;4965066;28;20408;-87
2023/06/28 11:50:13;;;;;;;;;;;;;;;;;;4941649;28;19941;-85
2023/06/28 11:52:40;;;;;;;;;;;;;;;;;;4963600;28;21222;-86
2023/06/28 11:55:08;;;;;;;;;;;;;;;;;;4944636;28;19941;-88
2023/06/28 11:57:36;;;;;;;;;;;;;;;;;;4944829;28;20438;-84
2023/06/28 12:00:05;;;;;;;;;;;;;;;;;;4954743;28;19934;-87
2023/06/28 12:02:38;;;;;;;;;;;;;;;;;;4953168;28;19934;-83
2023/06/28 12:05:12;;;;;;;;;;;;;;;;;;4945581;28;19934;-87
2023/06/28 12:07:39;;;;;;;;;;;;;;;;;;4948264;28;20298;-86
2023/06/28 12:10:17;;;;;;;;;;;;;;;;;;4965480;28;20501;-87
2023/06/28 12:12:45;;;;;;;;;;;;;;;;;;4966187;28;20306;-86
2023/06/28 12:15:13;;;;;;;;;;;;;;;;;;4956274;28;19934;-86
2023/06/28 12:17:44;;;;;;;;;;;;;;;;;;4942842;28;19934;-89
2023/06/28 12:20:11;;;;;;;;;;;;;;;;;;4947432;28;20750;-86
2023/06/28 12:22:41;;;;;;;;;;;;;;;;;;4946062;28;20318;-87
2023/06/28 12:25:09;;;;;;;;;;;;;;;;;;4934028;28;19945;-89
2023/06/28 12:27:38;;;;;;;;;;;;;;;;;;4934959;28;19934;-85
2023/06/28 12:30:05;;;;;;;;;;;;;;;;;;4932992;28;21874;-88
2023/06/28 12:32:33;;;;;;;;;;;;;;;;;;4935524;28;19930;-89
2023/06/28 12:35:00;;;;;;;;;;;;;;;;;;4960566;28;19934;-87
2023/06/28 12:37:29;;;;;;;;;;;;;;;;;;4952515;28;19941;-85
2023/06/28 12:39:57;;;;;;;;;;;;;;;;;;4955488;28;19934;-87
2023/06/28 12:42:26;;;;;;;;;;;;;;;;;;4947536;28;19929;-84
2023/06/28 12:44:54;;;;;;;;;;;;;;;;;;4985980;28;20378;-85
2023/06/28 12:47:21;;;;;;;;;;;;;;;;;;4975913;28;19926;-85
2023/06/28 12:49:51;;;;;;;;;;;;;;;;;;4981506;28;19945;-87
2023/06/28 12:52:18;;;;;;;;;;;;;;;;;;4967089;28;19937;-84
2023/06/28 12:54:46;;;;;;;;;;;;;;;;;;4978671;28;21036;-85
2023/06/28 12:57:13;;;;;;;;;;;;;;;;;;4978634;28;19934;-87
2023/06/28 12:59:41;;;;;;;;;;;;;;;;;;4971762;28;20282;-84
2023/06/28 13:02:08;;;;;;;;;;;;;;;;;;4973795;28;20390;-85
2023/06/28 13:04:41;;;;;;;;;;;;;;;;;;4975489;28;20314;-87
2023/06/28 13:07:09;;;;;;;;;;;;;;;;;;4993252;28;19934;-83
2023/06/28 13:09:37;;;;;;;;;;;;;;;;;;4997483;28;20704;-85
2023/06/28 13:12:11;;;;;;;;;;;;;;;;;;4992857;28;19934;-87
2023/06/28 13:14:38;;;;;;;;;;;;;;;;;;4986352;28;19957;-84
2023/06/28 13:17:07;;;;;;;;;;;;;;;;;;4971618;28;19941;-87
2023/06/28 13:19:36;;;;;;;;;;;;;;;;;;4972045;28;20512;-87
2023/06/28 13:22:04;;;;;;;;;;;;;;;;;;4970664;28;20901;-87
2023/06/28 13:24:31;;;;;;;;;;;;;;;;;;4982212;28;19934;-84
2023/06/28 13:26:59;;;;;;;;;;;;;;;;;;4980740;28;20025;-83
2023/06/28 13:29:27;;;;;;;;;;;;;;;;;;4965995;28;19960;-84
2023/06/28 13:31:55;;;;;;;;;;;;;;;;;;4979928;28;19934;-85
2023/06/28 13:34:22;;;;;;;;;;;;;;;;;;4974652;28;19940;-86
2023/06/28 13:36:50;;;;;;;;;;;;;;;;;;4961848;28;20462;-85
2023/06/28 13:39:22;;;;;;;;;;;;;;;;;;4960865;28;19933;-85
2023/06/28 13:41:50;;;;;;;;;;;;;;;;;;4976580;28;20408;-85
2023/06/28 13:44:18;;;;;;;;;;;;;;;;;;4968321;28;19944;-85
2023/06/28 13:46:46;;;;;;;;;;;;;;;;;;4985986;28;19933;-85
2023/06/28 13:49:13;;;;;;;;;;;;;;;;;;4978289;28;19957;-86
2023/06/28 13:51:41;;;;;;;;;;;;;;;;;;4965450;28;19937;-85
2023/06/28 13:54:08;;;;;;;;;;;;;;;;;;4984873;28;19934;-86
2023/06/28 13:56:36;;;;;;;;;;;;;;;;;;4969000;28;20397;-86
2023/06/28 13:59:04;;;;;;;;;;;;;;;;;;4968352;28;20015;-86
2023/06/28 14:01:31;;;;;;;;;;;;;;;;;;4968511;28;19934;-85
2023/06/28 14:03:59;;;;;;;;;;;;;;;;;;4974625;28;19934;-85
2023/06/28 14:06:27;;;;;;;;;;;;;;;;;;4970679;28;19930;-86
2023/06/28 14:08:54;;;;;;;;;;;;;;;;;;4979142;28;19940;-82
2023/06/28 14:11:22;;;;;;;;;;;;;;;;;;4975056;28;19945;-85
2023/06/28 14:13:55;;;;;;;;;;;;;;;;;;4976134;28;19929;-84
2023/06/28 14:16:22;;;;;;;;;;;;;;;;;;4980292;28;19933;-83
2023/06/28 14:18:50;;;;;;;;;;;;;;;;;;4975030;28;20467;-84
2023/06/28 14:21:18;;;;;;;;;;;;;;;;;;4975015;28;20270;-82
2023/06/28 14:23:51;;;;;;;;;;;;;;;;;;4972834;28;19957;-81
2023/06/28 14:26:18;;;;;;;;;;;;;;;;;;4991286;28;19933;-85
2023/06/28 14:28:46;;;;;;;;;;;;;;;;;;4979932;28;19929;-85
2023/06/28 14:31:15;;;;;;;;;;;;;;;;;;4981250;28;19977;-85
2023/06/28 14:33:42;;;;;;;;;;;;;;;;;;4992744;28;19941;-83
2023/06/28 14:36:15;;;;;;;;;;;;;;;;;;4975444;28;19954;-83
2023/06/28 14:38:42;;;;;;;;;;;;;;;;;;4961654;28;19940;-84
2023/06/28 14:41:15;;;;;;;;;;;;;;;;;;4980977;28;20574;-85
2023/06/28 14:43:43;;;;;;;;;;;;;;;;;;4984467;28;19934;-83
2023/06/28 14:46:15;;;;;;;;;;;;;;;;;;4991631;28;20495;-84
2023/06/28 14:48:43;;;;;;;;;;;;;;;;;;4995438;28;19940;-83
2023/06/28 14:51:11;;;;;;;;;;;;;;;;;;4966988;28;19934;-82
2023/06/28 14:53:38;;;;;;;;;;;;;;;;;;4991133;28;19934;-86
2023/06/28 14:56:06;;;;;;;;;;;;;;;;;;4971805;28;19940;-83
2023/06/28 14:58:33;;;;;;;;;;;;;;;;;;4972309;28;20842;-88
2023/06/28 15:01:01;;;;;;;;;;;;;;;;;;4973041;28;19930;-85
2023/06/28 15:03:34;;;;;;;;;;;;;;;;;;4983813;28;19940;-86
2023/06/28 15:06:01;;;;;;;;;;;;;;;;;;4992058;28;20394;-84
2023/06/28 15:08:29;;;;;;;;;;;;;;;;;;4988784;28;20390;-85
2023/06/28 15:10:57;;;;;;;;;;;;;;;;;;4986963;28;21248;-84
2023/06/28 15:13:24;;;;;;;;;;;;;;;;;;4989340;28;19935;-84
2023/06/28 15:15:52;;;;;;;;;;;;;;;;;;4991486;28;19945;-85
2023/06/28 15:18:20;;;;;;;;;;;;;;;;;;4969838;28;20650;-83
2023/06/28 15:20:53;;;;;;;;;;;;;;;;;;4988098;28;20179;-83
2023/06/28 15:23:26;;;;;;;;;;;;;;;;;;4976101;28;19941;-85
2023/06/28 15:25:54;;;;;;;;;;;;;;;;;;4981489;28;19945;-83
2023/06/28 15:28:21;;;;;;;;;;;;;;;;;;4969750;28;20416;-83
2023/06/28 15:30:49;;;;;;;;;;;;;;;;;;4973397;28;19933;-88
2023/06/28 15:33:17;;;;;;;;;;;;;;;;;;4998724;28;19933;-87
2023/06/28 15:35:44;;;;;;;;;;;;;;;;;;4980505;28;19949;-83
2023/06/28 15:38:12;;;;;;;;;;;;;;;;;;4972699;28;19943;-86
2023/06/28 15:40:40;;;;;;;;;;;;;;;;;;4972936;28;19934;-84
2023/06/28 15:43:07;;;;;;;;;;;;;;;;;;4974875;28;19934;-87
2023/06/28 15:45:40;;;;;;;;;;;;;;;;;;4969180;28;19944;-87
2023/06/28 15:48:07;;;;;;;;;;;;;;;;;;4974120;28;19945;-84
2023/06/28 15:50:36;;;;;;;;;;;;;;;;;;4969231;28;19941;-86
2023/06/28 15:53:03;;;;;;;;;;;;;;;;;;4980295;28;19930;-83
2023/06/28 15:55:32;;;;;;;;;;;;;;;;;;4970467;28;19934;-86
2023/06/28 15:58:04;;;;;;;;;;;;;;;;;;4973073;28;19965;-84
2023/06/28 16:00:32;;;;;;;;;;;;;;;;;;4965564;28;20306;-85
2023/06/28 16:03:06;;;;;;;;;;;;;;;;;;4969654;28;19941;-87
2023/06/28 16:05:33;;;;;;;;;;;;;;;;;;4970215;28;19940;-87
2023/06/28 16:08:06;;;;;;;;;;;;;;;;;;4974408;28;19941;-85
2023/06/28 16:10:33;;;;;;;;;;;;;;;;;;4978781;28;19937;-85
2023/06/28 16:13:03;;;;;;;;;;;;;;;;;;4993596;28;20371;-87
2023/06/28 16:15:31;;;;;;;;;;;;;;;;;;4981643;28;19930;-84
2023/06/28 16:17:58;;;;;;;;;;;;;;;;;;4979546;28;19930;-86
2023/06/28 16:20:26;;;;;;;;;;;;;;;;;;4985806;28;19933;-89
2023/06/28 16:22:59;;;;;;;;;;;;;;;;;;4984839;28;20017;-86
2023/06/28 16:25:26;;;;;;;;;;;;;;;;;;4997434;28;19941;-90
2023/06/28 16:27:54;;;;;;;;;;;;;;;;;;4993450;28;19935;-85
2023/06/28 16:30:21;;;;;;;;;;;;;;;;;;4981047;28;19941;-86
2023/06/28 16:32:59;;;;;;;;;;;;;;;;;;4981940;28;19930;-85
2023/06/28 16:35:27;;;;;;;;;;;;;;;;;;5001428;28;20302;-88
2023/06/28 16:37:59;;;;;;;;;;;;;;;;;;4979750;28;19926;-83
2023/06/28 16:40:26;;;;;;;;;;;;;;;;;;4985355;28;19933;-85
2023/06/28 16:42:54;;;;;;;;;;;;;;;;;;4985663;28;19933;-86
2023/06/28 16:45:21;;;;;;;;;;;;;;;;;;4989565;28;19936;-83
2023/06/28 16:47:49;;;;;;;;;;;;;;;;;;4974677;28;19934;-84
2023/06/28 16:50:17;;;;;;;;;;;;;;;;;;4987299;28;19940;-84
2023/06/28 16:52:44;;;;;;;;;;;;;;;;;;4973264;28;19933;-87
2023/06/28 16:55:12;;;;;;;;;;;;;;;;;;4976596;28;19953;-87
2023/06/28 16:57:40;;;;;;;;;;;;;;;;;;4982412;28;21226;-85